Time;durP1;ratioP1;P1;durP2;ratioP2;P2;SDS_P1;SDS_P2;PMS_P1;PMS_P2;Temp;Humidity;BMP_temperature;BMP_pressure;BME280_temperature;BME280_humidity;BME280_pressure;Samples;Min_cycle;Max_cycle;Signal;HPM_P1;HPM_P2
2022/04/27 00:02:01;;;;;;;2.33;1.30;;;23.50;36.40;;;;;;5071313;28;20412;-67
2022/04/27 00:04:28;;;;;;;2.50;1.20;;;23.50;36.40;;;;;;5071722;28;20787;-67
2022/04/27 00:06:53;;;;;;;2.08;1.20;;;23.50;36.40;;;;;;5071539;28;20388;-67
2022/04/27 00:09:19;;;;;;;2.30;1.30;;;23.50;36.40;;;;;;5071705;28;20394;-67
2022/04/27 00:11:45;;;;;;;2.78;1.40;;;23.50;36.40;;;;;;5071068;28;20411;-67
2022/04/27 00:14:10;;;;;;;2.77;1.17;;;23.50;36.40;;;;;;5071610;28;20464;-67
2022/04/27 00:16:36;;;;;;;2.47;1.30;;;23.50;36.50;;;;;;5071501;28;20411;-67
2022/04/27 00:19:02;;;;;;;2.07;1.10;;;23.50;36.50;;;;;;5071470;28;20882;-67
2022/04/27 00:21:28;;;;;;;2.20;1.30;;;23.40;36.40;;;;;;5071230;28;20879;-67
2022/04/27 00:23:53;;;;;;;2.60;1.20;;;23.40;36.50;;;;;;5070993;28;20392;-67
2022/04/27 00:26:19;;;;;;;3.60;1.50;;;23.40;36.40;;;;;;5071504;28;20396;-67
2022/04/27 00:28:45;;;;;;;1.63;0.93;;;23.40;36.40;;;;;;5071396;28;20705;-67
2022/04/27 00:31:11;;;;;;;2.90;1.30;;;23.40;36.40;;;;;;5071433;28;20482;-67
2022/04/27 00:33:37;;;;;;;3.08;1.50;;;23.40;36.30;;;;;;5071039;28;20437;-66
2022/04/27 00:36:03;;;;;;;2.87;1.20;;;23.40;36.30;;;;;;5070559;28;20404;-67
2022/04/27 00:38:28;;;;;;;2.78;1.13;;;23.40;36.30;;;;;;5071058;28;20445;-67
2022/04/27 00:40:54;;;;;;;1.98;1.20;;;23.40;36.30;;;;;;5071144;28;20717;-67
2022/04/27 00:43:39;;;;;;;1.77;1.27;;;23.40;36.20;;;;;;5071222;28;20395;-67
2022/04/27 00:46:05;;;;;;;2.17;1.23;;;23.40;36.30;;;;;;5071078;28;20464;-67
2022/04/27 00:48:31;;;;;;;2.20;1.50;;;23.40;36.30;;;;;;5071103;28;20887;-67
2022/04/27 00:50:59;;;;;;;1.75;1.20;;;23.40;36.30;;;;;;5069936;28;20392;-67
2022/04/27 00:53:25;;;;;;;2.25;1.27;;;23.40;36.30;;;;;;5069822;28;20402;-67
2022/04/27 00:55:51;;;;;;;1.35;1.00;;;23.40;36.30;;;;;;5070517;28;20416;-67
2022/04/27 00:58:18;;;;;;;1.50;1.10;;;23.40;36.30;;;;;;5071153;28;20488;-67
2022/04/27 01:00:44;;;;;;;1.70;1.13;;;23.40;36.30;;;;;;5070810;28;20391;-67
2022/04/27 01:03:09;;;;;;;2.55;1.10;;;23.40;36.80;;;;;;5072139;28;20394;-68
2022/04/27 01:05:35;;;;;;;1.73;1.10;;;23.40;36.20;;;;;;5074835;28;20471;-67
2022/04/27 01:08:01;;;;;;;1.80;1.00;;;23.40;36.30;;;;;;5074459;28;20774;-67
2022/04/27 01:10:27;;;;;;;3.08;1.20;;;23.40;36.30;;;;;;5074827;28;20944;-67
2022/04/27 01:12:55;;;;;;;2.93;1.23;;;23.40;36.30;;;;;;5073498;28;20482;-67
2022/04/27 01:15:33;;;;;;;3.03;1.10;;;23.40;36.40;;;;;;5074760;28;20383;-67
2022/04/27 01:17:59;;;;;;;2.47;1.20;;;23.30;36.30;;;;;;5074173;28;20511;-67
2022/04/27 01:20:35;;;;;;;1.40;1.20;;;23.30;36.30;;;;;;5074555;28;20384;-66
2022/04/27 01:23:01;;;;;;;3.75;1.45;;;23.30;36.40;;;;;;5074517;28;20387;-67
2022/04/27 01:25:27;;;;;;;2.97;1.43;;;23.40;36.40;;;;;;5074549;28;20891;-67
2022/04/27 01:27:53;;;;;;;2.20;1.20;;;23.30;36.40;;;;;;5073989;28;20392;-67
2022/04/27 01:30:19;;;;;;;1.80;1.10;;;23.30;36.30;;;;;;5074498;28;20405;-67
2022/04/27 01:32:45;;;;;;;1.52;1.20;;;23.30;36.20;;;;;;5074350;28;20391;-67
2022/04/27 01:35:11;;;;;;;2.90;1.33;;;23.30;36.90;;;;;;5073108;28;20395;-67
2022/04/27 01:40:21;;;;;;;3.00;1.38;;;23.30;36.30;;;;;;5074671;28;20403;-67
2022/04/27 01:42:48;;;;;;;1.80;1.50;;;23.30;36.30;;;;;;5074698;28;20891;-67
2022/04/27 01:45:13;;;;;;;2.53;1.20;;;23.30;36.40;;;;;;5074223;28;20384;-67
2022/04/27 01:47:39;;;;;;;1.58;1.10;;;23.30;36.30;;;;;;5074062;28;20391;-66
2022/04/27 01:50:05;;;;;;;2.10;1.30;;;23.30;36.40;;;;;;5072560;28;20384;-67
2022/04/27 01:55:15;;;;;;;1.98;1.20;;;23.30;36.40;;;;;;5074330;28;20430;-67
2022/04/27 01:57:40;;;;;;;1.40;1.30;;;23.30;36.40;;;;;;5073582;28;20543;-67
2022/04/27 02:00:06;;;;;;;2.13;1.37;;;23.30;36.40;;;;;;5073695;28;20390;-67
2022/04/27 02:02:33;;;;;;;2.50;1.40;;;23.30;36.40;;;;;;5073708;28;20477;-67
2022/04/27 02:04:59;;;;;;;2.10;1.48;;;23.30;36.40;;;;;;5073898;28;20474;-67
2022/04/27 02:07:25;;;;;;;1.38;1.10;;;23.30;36.40;;;;;;5071884;28;20490;-67
2022/04/27 02:09:51;;;;;;;2.20;1.25;;;23.30;36.30;;;;;;5071826;28;20487;-67
2022/04/27 02:12:16;;;;;;;1.58;1.20;;;23.30;36.40;;;;;;5073678;28;20483;-67
2022/04/27 02:14:42;;;;;;;1.43;1.20;;;23.30;36.30;;;;;;5072386;28;20376;-68
2022/04/27 02:17:08;;;;;;;2.45;1.13;;;23.30;36.90;;;;;;5072311;28;20450;-67
2022/04/27 02:19:34;;;;;;;1.88;1.10;;;23.20;36.30;;;;;;5073458;28;20384;-68
2022/04/27 02:21:59;;;;;;;2.00;1.20;;;23.20;36.30;;;;;;5071521;28;20741;-67
2022/04/27 02:24:26;;;;;;;1.87;1.20;;;23.30;36.30;;;;;;5073507;28;20383;-67
2022/04/27 02:26:52;;;;;;;1.63;1.10;;;23.30;36.30;;;;;;5073232;28;20806;-67
2022/04/27 02:29:18;;;;;;;1.70;1.10;;;23.20;36.30;;;;;;5073261;28;20387;-67
2022/04/27 02:31:44;;;;;;;2.03;1.10;;;23.20;36.40;;;;;;5073076;28;20533;-66
2022/04/27 02:34:10;;;;;;;1.52;1.13;;;23.20;36.40;;;;;;5073044;28;20524;-67
2022/04/27 02:36:36;;;;;;;2.20;1.20;;;23.20;36.50;;;;;;5073115;28;20426;-67
2022/04/27 02:39:01;;;;;;;1.53;1.20;;;23.20;36.50;;;;;;5073240;28;20468;-67
2022/04/27 02:41:28;;;;;;;1.53;1.30;;;23.20;36.50;;;;;;5073116;28;20388;-67
2022/04/27 02:43:55;;;;;;;2.63;1.27;;;23.20;36.50;;;;;;5072617;28;20407;-67
2022/04/27 02:46:20;;;;;;;1.85;1.30;;;23.20;36.50;;;;;;5073075;28;20868;-67
2022/04/27 02:51:49;;;;;;;1.90;1.27;;;23.20;36.50;;;;;;5072996;28;20426;-68
2022/04/27 02:54:19;;;;;;;2.28;1.30;;;23.20;36.30;;;;;;5072755;28;20383;-67
2022/04/27 02:56:45;;;;;;;2.00;1.30;;;23.20;36.40;;;;;;5072768;28;20411;-67
2022/04/27 02:59:11;;;;;;;1.80;1.20;;;23.20;36.40;;;;;;5071553;28;20376;-67
2022/04/27 03:01:38;;;;;;;3.03;1.30;;;23.20;36.40;;;;;;5072530;28;20426;-67
2022/04/27 03:04:05;;;;;;;2.10;1.30;;;23.20;36.40;;;;;;5072336;28;20391;-67
2022/04/27 03:06:31;;;;;;;1.88;1.50;;;23.20;36.40;;;;;;5072643;28;20388;-66
2022/04/27 03:08:56;;;;;;;2.00;1.60;;;23.20;36.40;;;;;;5072562;28;20405;-67
2022/04/27 03:11:22;;;;;;;2.08;1.40;;;23.20;36.40;;;;;;5072440;28;20383;-67
2022/04/27 03:13:47;;;;;;;1.67;1.40;;;23.20;36.50;;;;;;5072232;28;20384;-67
2022/04/27 03:16:13;;;;;;;4.07;1.40;;;23.20;36.60;;;;;;5072217;28;20787;-67
2022/04/27 03:18:39;;;;;;;3.20;1.50;;;23.20;36.60;;;;;;5071093;28;20399;-67
2022/04/27 03:21:04;;;;;;;2.00;1.40;;;23.20;36.60;;;;;;5070916;28;20403;-66
2022/04/27 03:23:30;;;;;;;2.15;1.50;;;23.20;36.60;;;;;;5071811;28;20768;-67
2022/04/27 03:25:56;;;;;;;2.17;1.60;;;23.20;36.70;;;;;;5071364;28;20872;-67
2022/04/27 03:28:21;;;;;;;2.07;1.40;;;23.20;36.60;;;;;;5072253;28;20376;-67
2022/04/27 03:30:50;;;;;;;2.20;1.58;;;23.20;36.60;;;;;;5072135;28;20406;-67
2022/04/27 03:33:18;;;;;;;2.28;1.48;;;23.20;36.60;;;;;;5072119;28;20737;-67
2022/04/27 03:35:45;;;;;;;2.50;1.50;;;23.20;36.70;;;;;;5072048;28;20391;-67
2022/04/27 03:38:10;;;;;;;4.35;1.40;;;23.20;36.70;;;;;;5071750;28;20890;-67
2022/04/27 03:40:37;;;;;;;3.70;1.60;;;23.20;36.80;;;;;;5070679;28;20396;-67
2022/04/27 03:43:03;;;;;;;2.60;1.42;;;23.20;37.40;;;;;;5072043;28;20449;-67
2022/04/27 03:45:29;;;;;;;2.03;1.33;;;23.20;37.20;;;;;;5071976;28;20411;-67
2022/04/27 03:47:55;;;;;;;3.78;1.63;;;23.30;37.40;;;;;;5070110;28;20447;-67
2022/04/27 03:50:20;;;;;;;2.97;1.80;;;23.30;37.40;;;;;;5071961;28;20387;-68
2022/04/27 03:52:47;;;;;;;3.08;1.60;;;23.40;38.00;;;;;;5071707;28;20791;-69
2022/04/27 03:55:13;;;;;;;3.70;1.70;;;23.40;37.70;;;;;;5071750;28;20388;-69
2022/04/27 03:57:38;;;;;;;3.63;1.42;;;23.40;37.70;;;;;;5071634;28;20415;-68
2022/04/27 04:00:05;;;;;;;2.43;1.67;;;23.40;37.70;;;;;;5070995;28;20962;-67
2022/04/27 04:02:31;;;;;;;3.42;1.63;;;23.40;37.70;;;;;;5071531;28;20404;-67
2022/04/27 04:04:57;;;;;;;3.00;1.50;;;23.40;37.60;;;;;;5071762;28;20928;-68
2022/04/27 04:07:22;;;;;;;3.10;1.50;;;23.40;37.80;;;;;;5071681;28;20384;-67
2022/04/27 04:09:48;;;;;;;4.97;1.57;;;23.40;38.10;;;;;;5071360;28;20387;-67
2022/04/27 04:12:14;;;;;;;4.32;1.30;;;23.50;38.10;;;;;;5071391;28;20947;-66
2022/04/27 04:14:40;;;;;;;2.33;1.37;;;23.50;38.00;;;;;;5071433;28;20384;-68
2022/04/27 04:17:05;;;;;;;3.22;1.60;;;23.50;38.00;;;;;;5071585;28;20420;-68
2022/04/27 04:19:34;;;;;;;3.00;1.35;;;23.50;38.00;;;;;;5071500;28;20763;-68
2022/04/27 04:22:00;;;;;;;3.40;1.40;;;23.50;37.80;;;;;;5070950;28;20390;-68
2022/04/27 04:24:26;;;;;;;2.63;1.48;;;23.50;38.00;;;;;;5071497;28;20465;-68
2022/04/27 04:29:36;;;;;;;2.50;1.30;;;23.50;37.70;;;;;;5071381;28;20387;-67
2022/04/27 04:32:02;;;;;;;8.02;1.52;;;23.50;37.40;;;;;;5065265;28;20419;-68
2022/04/27 04:34:28;;;;;;;2.90;1.33;;;23.50;38.30;;;;;;5069709;28;20463;-68
2022/04/27 04:36:54;;;;;;;4.63;1.50;;;23.50;38.20;;;;;;5071314;28;20418;-67
2022/04/27 04:39:19;;;;;;;5.07;1.40;;;23.50;37.90;;;;;;5076013;28;20429;-67
2022/04/27 04:41:45;;;;;;;5.13;1.67;;;23.60;38.00;;;;;;5074185;28;20533;-68
2022/04/27 04:44:11;;;;;;;5.43;1.57;;;23.60;37.80;;;;;;5074858;28;20379;-68
2022/04/27 04:46:36;;;;;;;4.03;1.40;;;23.60;38.00;;;;;;5055827;28;20409;-68
2022/04/27 04:49:02;;;;;;;3.17;1.40;;;23.60;38.00;;;;;;5036327;28;20515;-68
2022/04/27 04:51:28;;;;;;;3.08;1.40;;;23.60;38.50;;;;;;5035924;28;20394;-68
2022/04/27 04:53:54;;;;;;;5.40;1.60;;;23.60;38.60;;;;;;5035430;28;20918;-68
2022/04/27 04:56:20;;;;;;;4.32;1.48;;;23.60;38.40;;;;;;5046665;28;20777;-68
2022/04/27 04:58:46;;;;;;;4.82;1.70;;;23.60;38.10;;;;;;5061051;28;20907;-67
2022/04/27 05:01:12;;;;;;;3.35;1.40;;;23.60;39.10;;;;;;5073478;28;20427;-65
2022/04/27 05:03:38;;;;;;;4.35;1.60;;;23.50;38.90;;;;;;5074935;28;20387;-66
2022/04/27 05:06:04;;;;;;;3.92;1.70;;;23.50;38.90;;;;;;5074764;28;20399;-66
2022/04/27 05:08:30;;;;;;;5.57;1.67;;;23.60;39.10;;;;;;5074818;28;20387;-64
2022/04/27 05:10:56;;;;;;;4.93;1.60;;;23.60;39.40;;;;;;5076572;28;20418;-65
2022/04/27 05:13:22;;;;;;;4.83;1.50;;;23.60;39.20;;;;;;5075330;28;20446;-67
2022/04/27 05:15:48;;;;;;;4.60;1.42;;;23.60;39.20;;;;;;5074824;28;20795;-68
2022/04/27 05:18:14;;;;;;;4.50;1.55;;;23.60;39.20;;;;;;5074508;28;20400;-67
2022/04/27 05:20:40;;;;;;;10.85;1.77;;;23.60;39.40;;;;;;5075554;28;20387;-67
2022/04/27 05:23:06;;;;;;;5.47;1.77;;;23.60;39.40;;;;;;5074680;28;20402;-65
2022/04/27 05:25:34;;;;;;;5.60;1.73;;;23.60;39.00;;;;;;5070926;28;20418;-67
2022/04/27 05:28:03;;;;;;;6.57;1.75;;;23.60;39.50;;;;;;5044100;28;20401;-67
2022/04/27 05:33:17;;;;;;;7.00;1.77;;;23.70;39.40;;;;;;5045223;28;20375;-68
2022/04/27 05:35:43;;;;;;;6.80;2.20;;;23.70;39.10;;;;;;5038507;28;20501;-68
2022/04/27 05:38:10;;;;;;;6.07;1.83;;;23.80;39.60;;;;;;5033896;28;20499;-68
2022/04/27 05:40:36;;;;;;;6.88;2.03;;;23.80;39.10;;;;;;5046919;28;20444;-67
2022/04/27 05:43:07;;;;;;;6.70;1.67;;;23.80;39.60;;;;;;5053271;28;20394;-67
2022/04/27 05:45:33;;;;;;;5.10;1.90;;;23.80;39.70;;;;;;5055175;28;20389;-68
2022/04/27 05:47:59;;;;;;;4.80;1.83;;;23.80;39.60;;;;;;5054319;28;20912;-68
2022/04/27 05:50:25;;;;;;;4.22;1.67;;;23.80;39.60;;;;;;5053826;28;20393;-68
2022/04/27 05:52:52;;;;;;;6.53;1.75;;;23.80;39.50;;;;;;5054002;28;20389;-68
2022/04/27 05:55:19;;;;;;;4.05;1.58;;;23.90;39.60;;;;;;5052759;28;20397;-68
2022/04/27 05:57:45;;;;;;;6.70;1.70;;;23.90;39.60;;;;;;5055552;28;20980;-68
2022/04/27 06:00:11;;;;;;;5.88;1.80;;;23.90;39.50;;;;;;5053983;28;20476;-68
2022/04/27 06:02:38;;;;;;;5.70;1.70;;;23.90;39.50;;;;;;5048857;28;20417;-68
2022/04/27 06:05:05;;;;;;;5.97;1.95;;;23.90;39.00;;;;;;5042114;28;20483;-68
2022/04/27 06:07:31;;;;;;;3.83;1.77;;;23.90;39.00;;;;;;5040119;28;20403;-69
2022/04/27 06:09:56;;;;;;;4.43;1.67;;;23.90;39.60;;;;;;5042994;28;20742;-67
2022/04/27 06:12:30;;;;;;;6.17;1.90;;;23.90;39.20;;;;;;5042454;28;20397;-65
2022/04/27 06:14:55;;;;;;;3.08;1.58;;;23.90;38.60;;;;;;5053058;28;20379;-68
2022/04/27 06:17:21;;;;;;;5.82;1.63;;;23.80;38.50;;;;;;5053054;28;20512;-68
2022/04/27 06:19:47;;;;;;;5.50;2.10;;;23.80;38.20;;;;;;5053119;28;20401;-68
2022/04/27 06:22:13;;;;;;;3.70;1.58;;;23.80;38.00;;;;;;5052975;28;20396;-68
2022/04/27 06:24:38;;;;;;;5.33;1.90;;;23.80;37.80;;;;;;5053266;28;20897;-68
2022/04/27 06:27:04;;;;;;;9.27;1.70;;;23.80;37.70;;;;;;5051941;28;20393;-68
2022/04/27 06:29:29;;;;;;;5.18;1.70;;;23.70;37.60;;;;;;5053043;28;20401;-67
2022/04/27 06:31:55;;;;;;;4.17;1.67;;;23.70;37.50;;;;;;5052806;28;20396;-65
2022/04/27 06:34:21;;;;;;;2.92;1.70;;;23.60;37.50;;;;;;5052937;28;20866;-68
2022/04/27 06:36:46;;;;;;;5.03;1.50;;;23.70;37.40;;;;;;5052847;28;20919;-69
2022/04/27 06:39:14;;;;;;;3.50;1.40;;;23.60;37.30;;;;;;5053095;28;20400;-68
2022/04/27 06:41:41;;;;;;;3.42;1.70;;;23.60;37.30;;;;;;5052783;28;20413;-68
2022/04/27 06:44:07;;;;;;;2.53;1.70;;;23.60;37.30;;;;;;5051200;28;20394;-68
2022/04/27 06:46:32;;;;;;;3.10;1.50;;;23.60;37.20;;;;;;5051487;28;20394;-67
2022/04/27 06:48:58;;;;;;;2.50;1.40;;;23.60;37.10;;;;;;5052776;28;20476;-68
2022/04/27 06:51:24;;;;;;;3.17;1.70;;;23.60;37.00;;;;;;5051856;28;20482;-69
2022/04/27 06:53:49;;;;;;;2.38;1.70;;;23.60;36.90;;;;;;5052579;28;20486;-68
2022/04/27 06:56:16;;;;;;;2.85;1.50;;;23.60;37.00;;;;;;5051845;28;20404;-68
2022/04/27 06:58:42;;;;;;;2.33;1.60;;;23.60;37.10;;;;;;5052604;28;20950;-67
2022/04/27 07:01:09;;;;;;;2.92;1.70;;;23.60;37.10;;;;;;5051773;28;20429;-68
2022/04/27 07:03:36;;;;;;;2.60;1.65;;;23.60;37.10;;;;;;5052212;28;20405;-65
2022/04/27 07:06:02;;;;;;;3.22;1.80;;;23.60;37.00;;;;;;5052194;28;20471;-66
2022/04/27 07:08:32;;;;;;;2.63;1.75;;;23.50;36.90;;;;;;5050971;28;20492;-68
2022/04/27 07:10:57;;;;;;;2.60;1.67;;;23.50;36.90;;;;;;5051150;28;20389;-68
2022/04/27 07:13:23;;;;;;;2.38;1.50;;;23.50;37.00;;;;;;5052528;28;20404;-69
2022/04/27 07:15:50;;;;;;;2.13;1.70;;;23.50;37.60;;;;;;5052749;28;20389;-68
2022/04/27 07:18:16;;;;;;;3.80;1.90;;;23.50;37.60;;;;;;5050925;28;20406;-67
2022/04/27 07:20:42;;;;;;;2.53;1.70;;;23.60;37.90;;;;;;5052093;28;20754;-67
2022/04/27 07:23:07;;;;;;;5.22;1.83;;;23.60;37.20;;;;;;5052227;28;20527;-68
2022/04/27 07:25:33;;;;;;;4.60;1.80;;;23.60;37.20;;;;;;5051942;28;20422;-68
2022/04/27 07:27:59;;;;;;;3.47;1.85;;;23.60;37.00;;;;;;5049925;28;20398;-67
2022/04/27 07:30:24;;;;;;;4.03;2.10;;;23.60;36.90;;;;;;5051754;28;20401;-68
2022/04/27 07:32:51;;;;;;;3.10;1.73;;;23.50;36.80;;;;;;5050671;28;20429;-67
2022/04/27 07:35:18;;;;;;;2.80;1.70;;;23.50;36.90;;;;;;5051914;28;20412;-67
2022/04/27 07:37:44;;;;;;;2.30;1.60;;;23.50;36.90;;;;;;5051919;28;20420;-68
2022/04/27 07:40:12;;;;;;;2.92;1.70;;;23.50;36.80;;;;;;5051537;28;20386;-67
2022/04/27 07:42:39;;;;;;;2.47;1.70;;;23.50;36.80;;;;;;5051853;28;20407;-68
2022/04/27 07:45:06;;;;;;;2.08;1.65;;;23.50;36.80;;;;;;5051765;28;20389;-68
2022/04/27 07:47:43;;;;;;;3.28;1.80;;;23.50;36.80;;;;;;5051776;28;20390;-67
2022/04/27 07:50:10;;;;;;;2.43;1.67;;;23.50;36.80;;;;;;5051357;28;20420;-67
2022/04/27 07:52:36;;;;;;;2.70;1.70;;;23.50;36.80;;;;;;5051481;28;20396;-68
2022/04/27 07:55:03;;;;;;;2.60;1.75;;;23.50;36.80;;;;;;5051525;28;20481;-68
2022/04/27 07:57:33;;;;;;;2.25;1.60;;;23.50;36.90;;;;;;5051433;28;20751;-67
2022/04/27 08:00:00;;;;;;;2.65;1.50;;;23.50;36.90;;;;;;5051510;28;20424;-68
2022/04/27 08:02:25;;;;;;;2.65;1.80;;;23.50;36.90;;;;;;5051262;28;20405;-68
2022/04/27 08:04:51;;;;;;;3.00;1.80;;;23.50;36.80;;;;;;5051531;28;20788;-69
2022/04/27 08:07:17;;;;;;;2.17;1.55;;;23.50;36.80;;;;;;5050264;28;20712;-68
2022/04/27 08:09:42;;;;;;;2.65;1.70;;;23.50;36.80;;;;;;5051389;28;20408;-67
2022/04/27 08:12:08;;;;;;;2.10;1.60;;;23.50;36.80;;;;;;5050921;28;20815;-67
2022/04/27 08:14:36;;;;;;;1.93;1.40;;;23.50;36.80;;;;;;5051307;28;20417;-68
2022/04/27 08:17:02;;;;;;;1.80;1.55;;;23.50;36.80;;;;;;5051307;28;20420;-68
2022/04/27 08:19:28;;;;;;;3.00;1.40;;;23.50;36.90;;;;;;5051476;28;20385;-69
2022/04/27 08:21:54;;;;;;;3.90;1.77;;;23.50;36.90;;;;;;5051296;28;20493;-66
2022/04/27 08:24:21;;;;;;;2.42;1.67;;;23.40;36.80;;;;;;5050967;28;20877;-68
2022/04/27 08:26:47;;;;;;;3.28;1.50;;;23.30;36.50;;;;;;5040950;28;20454;-69
2022/04/27 08:29:13;;;;;;;3.58;1.90;;;23.30;36.70;;;;;;5032053;28;20425;-68
2022/04/27 08:31:40;;;;;;;2.90;1.88;;;23.30;37.20;;;;;;5039870;28;20419;-68
2022/04/27 08:34:05;;;;;;;4.43;1.73;;;23.30;37.00;;;;;;5038318;28;20396;-68
2022/04/27 08:36:31;;;;;;;5.40;1.80;;;23.40;37.50;;;;;;5030982;28;20494;-68
2022/04/27 08:38:58;;;;;;;5.10;1.60;;;23.40;37.00;;;;;;5029882;28;20887;-69
2022/04/27 08:41:26;;;;;;;5.07;1.50;;;23.40;37.30;;;;;;5031656;28;20394;-69
2022/04/27 08:43:51;;;;;;;5.55;1.77;;;23.40;37.60;;;;;;5031174;28;20400;-68
2022/04/27 08:46:17;;;;;;;5.38;1.80;;;23.40;37.80;;;;;;5037947;28;20449;-68
2022/04/27 08:48:50;;;;;;;4.07;1.60;;;23.50;37.70;;;;;;5073640;28;20881;-67
2022/04/27 08:51:17;;;;;;;4.07;1.58;;;23.50;37.60;;;;;;5049949;28;20836;-67
2022/04/27 08:53:44;;;;;;;6.30;1.55;;;23.50;37.50;;;;;;5051064;28;20393;-67
2022/04/27 08:56:10;;;;;;;4.45;1.50;;;23.60;37.50;;;;;;5051216;28;20472;-68
2022/04/27 08:58:35;;;;;;;4.22;1.50;;;23.60;37.30;;;;;;5050898;28;20933;-68
2022/04/27 09:01:02;;;;;;;5.72;1.80;;;23.60;37.50;;;;;;5050518;28;20480;-68
2022/04/27 09:03:38;;;;;;;2.90;1.70;;;23.60;37.60;;;;;;5049723;28;20397;-68
2022/04/27 09:06:12;;;;;;;5.32;1.67;;;23.60;37.60;;;;;;5051146;28;20386;-65
2022/04/27 09:08:46;;;;;;;4.88;1.70;;;23.60;37.60;;;;;;5049480;28;20397;-67
2022/04/27 09:11:22;;;;;;;3.30;1.60;;;23.60;37.50;;;;;;5051081;28;20393;-67
2022/04/27 09:13:49;;;;;;;4.10;1.60;;;23.60;37.60;;;;;;5050679;28;20401;-68
2022/04/27 09:16:15;;;;;;;5.50;1.77;;;23.60;37.10;;;;;;5050355;28;20391;-68
2022/04/27 09:21:55;;;;;;;4.83;1.60;;;23.60;37.40;;;;;;5050932;28;20858;-68
2022/04/27 09:24:21;;;;;;;5.40;1.75;;;23.60;37.30;;;;;;5051395;28;20400;-68
2022/04/27 09:27:09;;;;;;;3.77;1.60;;;23.60;37.40;;;;;;5054559;28;20393;-67
2022/04/27 09:29:35;;;;;;;3.72;1.60;;;23.60;37.30;;;;;;5054694;28;20386;-68
2022/04/27 09:32:03;;;;;;;4.70;1.60;;;23.60;37.10;;;;;;5054344;28;20390;-68
2022/04/27 09:34:29;;;;;;;4.80;1.90;;;23.60;37.40;;;;;;5054240;28;20385;-68
2022/04/27 09:37:00;;;;;;;5.25;1.73;;;23.60;37.60;;;;;;5051787;28;20412;-69
2022/04/27 09:39:26;;;;;;;6.05;2.00;;;23.60;37.30;;;;;;5054045;28;20389;-69
2022/04/27 09:41:52;;;;;;;9.45;1.95;;;23.60;37.50;;;;;;5052763;28;20904;-69
2022/04/27 09:44:34;;;;;;;8.32;1.98;;;23.60;38.30;;;;;;5053839;28;20451;-68
2022/04/27 09:47:05;;;;;;;6.15;2.13;;;23.70;39.10;;;;;;5045228;28;20532;-68
2022/04/27 09:49:36;;;;;;;7.40;2.20;;;23.70;38.10;;;;;;5041866;28;20490;-65
2022/04/27 09:52:04;;;;;;;6.40;2.37;;;23.70;38.50;;;;;;5041891;28;20739;-65
2022/04/27 09:54:34;;;;;;;8.23;2.13;;;23.70;38.50;;;;;;5041953;28;20390;-68
2022/04/27 09:57:02;;;;;;;4.80;2.00;;;23.70;38.40;;;;;;5042854;28;20413;-65
2022/04/27 09:59:32;;;;;;;6.22;2.00;;;23.70;38.60;;;;;;5042354;28;20383;-65
2022/04/27 10:02:00;;;;;;;5.00;2.00;;;23.80;38.50;;;;;;5035755;28;20411;-69
2022/04/27 10:04:28;;;;;;;6.68;2.20;;;23.80;38.50;;;;;;5033350;28;20394;-66
2022/04/27 10:06:58;;;;;;;8.20;2.10;;;23.80;38.30;;;;;;5033404;28;20480;-65
2022/04/27 10:09:25;;;;;;;5.23;1.83;;;23.90;38.50;;;;;;5033640;28;20533;-66
2022/04/27 10:11:51;;;;;;;4.10;2.00;;;23.90;38.70;;;;;;5033213;28;20402;-65
2022/04/27 10:14:18;;;;;;;5.45;2.00;;;23.90;38.20;;;;;;5033125;28;20383;-65
2022/04/27 10:16:44;;;;;;;6.13;1.80;;;23.90;38.50;;;;;;5033367;28;20502;-65
2022/04/27 10:19:10;;;;;;;3.92;1.90;;;23.90;38.90;;;;;;5033496;28;20409;-65
2022/04/27 10:21:55;;;;;;;4.80;1.60;;;24.00;38.90;;;;;;5033258;28;21080;-66
2022/04/27 10:24:42;;;;;;;5.93;1.85;;;24.00;38.90;;;;;;5033229;28;20909;-64
2022/04/27 10:27:14;;;;;;;5.28;2.10;;;24.10;38.70;;;;;;5033214;28;20398;-65
2022/04/27 10:29:40;;;;;;;6.13;1.70;;;24.10;38.90;;;;;;5033192;28;20466;-65
2022/04/27 10:32:06;;;;;;;6.30;1.98;;;24.10;39.30;;;;;;5033228;28;20514;-64
2022/04/27 10:34:33;;;;;;;4.70;1.90;;;24.20;39.40;;;;;;5032771;28;20386;-65
2022/04/27 10:37:05;;;;;;;7.03;2.10;;;24.20;39.30;;;;;;5031817;28;20398;-65
2022/04/27 10:39:32;;;;;;;9.57;1.90;;;24.20;39.30;;;;;;5033192;28;20398;-66
2022/04/27 10:42:04;;;;;;;11.07;4.90;;;24.20;39.70;;;;;;5032838;28;20814;-65
2022/04/27 10:44:48;;;;;;;8.13;3.10;;;24.20;41.80;;;;;;5032513;28;20453;-65
2022/04/27 10:47:20;;;;;;;10.27;3.90;;;24.30;40.60;;;;;;5044542;28;20467;-65
2022/04/27 10:49:48;;;;;;;9.98;4.00;;;24.30;41.30;;;;;;5050901;28;20393;-64
2022/04/27 10:52:15;;;;;;;13.55;4.30;;;24.40;41.60;;;;;;5052072;28;20391;-64
2022/04/27 10:54:41;;;;;;;13.85;4.30;;;24.40;41.40;;;;;;5051091;28;20874;-64
2022/04/27 10:57:18;;;;;;;10.38;3.53;;;24.40;41.60;;;;;;5052414;28;20432;-65
2022/04/27 10:59:48;;;;;;;12.10;3.78;;;24.40;41.40;;;;;;5052456;28;20401;-65
2022/04/27 11:02:38;;;;;;;9.82;3.78;;;24.40;41.10;;;;;;5049556;28;20731;-64
2022/04/27 11:05:15;;;;;;;9.48;3.50;;;24.40;40.90;;;;;;5052279;28;20397;-66
2022/04/27 11:08:09;;;;;;;19.33;3.60;;;24.40;40.80;;;;;;5051185;28;20773;-68
2022/04/27 11:10:39;;;;;;;12.05;3.60;;;24.50;40.60;;;;;;5051852;28;20865;-67
2022/04/27 11:13:07;;;;;;;10.90;3.10;;;24.40;40.50;;;;;;5052518;28;20396;-69
2022/04/27 11:15:33;;;;;;;8.35;3.10;;;24.40;40.30;;;;;;5045229;28;20382;-65
2022/04/27 11:18:04;;;;;;;10.03;3.20;;;24.40;40.20;;;;;;5042532;28;20417;-67
2022/04/27 11:20:30;;;;;;;7.45;2.85;;;24.40;40.20;;;;;;5042174;28;20430;-66
2022/04/27 11:22:56;;;;;;;7.60;2.90;;;24.40;40.00;;;;;;5042601;28;20395;-66
2022/04/27 11:25:48;;;;;;;7.20;2.90;;;24.50;39.80;;;;;;5052302;28;20400;-65
2022/04/27 11:28:15;;;;;;;6.70;2.70;;;24.40;39.40;;;;;;5051918;28;20461;-66
2022/04/27 11:30:41;;;;;;;6.43;2.60;;;24.40;39.50;;;;;;5051936;28;20389;-66
2022/04/27 11:33:08;;;;;;;5.87;2.53;;;24.40;39.40;;;;;;5062594;28;20408;-66
2022/04/27 11:35:50;;;;;;;6.18;2.60;;;24.40;38.80;;;;;;5052059;28;20443;-66
2022/04/27 11:38:20;;;;;;;6.07;2.70;;;24.40;38.70;;;;;;5051493;28;20835;-66
2022/04/27 11:40:49;;;;;;;5.03;2.60;;;24.40;38.40;;;;;;5051431;28;20389;-67
2022/04/27 11:43:23;;;;;;;6.65;2.63;;;24.40;38.20;;;;;;5067078;28;20406;-66
2022/04/27 11:45:50;;;;;;;4.63;2.45;;;24.40;38.00;;;;;;5067661;28;20422;-65
2022/04/27 11:48:18;;;;;;;4.65;2.30;;;24.40;37.90;;;;;;5050977;28;20870;-66
2022/04/27 11:50:44;;;;;;;4.43;2.23;;;24.40;37.80;;;;;;5051165;28;20397;-65
2022/04/27 11:53:14;;;;;;;3.88;2.30;;;24.40;37.70;;;;;;5051524;28;20421;-67
2022/04/27 11:55:40;;;;;;;4.28;2.40;;;24.40;37.60;;;;;;5050783;28;20425;-65
2022/04/27 11:58:07;;;;;;;5.10;2.00;;;24.40;37.50;;;;;;5062893;28;20425;-67
2022/04/27 12:00:34;;;;;;;4.90;2.30;;;24.40;37.50;;;;;;5050758;28;20392;-68
2022/04/27 12:03:05;;;;;;;5.20;2.28;;;24.40;37.40;;;;;;5051569;28;20409;-66
2022/04/27 12:05:38;;;;;;;3.53;2.00;;;24.40;37.20;;;;;;5051445;28;20384;-66
2022/04/27 12:08:09;;;;;;;3.72;1.90;;;24.40;37.20;;;;;;5051192;28;20396;-68
2022/04/27 12:10:39;;;;;;;4.30;1.97;;;24.40;37.10;;;;;;5050993;28;20551;-67
2022/04/27 12:13:05;;;;;;;4.10;1.93;;;24.40;37.10;;;;;;5051353;28;20461;-66
2022/04/27 12:15:31;;;;;;;2.40;1.90;;;24.40;37.00;;;;;;5051154;28;20400;-66
2022/04/27 12:17:58;;;;;;;3.40;1.80;;;24.40;37.00;;;;;;5049639;28;20417;-66
2022/04/27 12:20:41;;;;;;;3.40;1.83;;;24.40;37.00;;;;;;5050811;28;20869;-67
2022/04/27 12:23:23;;;;;;;2.78;1.90;;;24.40;36.90;;;;;;5051268;28;20394;-68
2022/04/27 12:25:59;;;;;;;3.10;1.87;;;24.30;36.90;;;;;;5050898;28;20549;-66
2022/04/27 12:28:34;;;;;;;2.97;1.92;;;24.30;36.90;;;;;;5066295;28;20393;-66
2022/04/27 12:31:08;;;;;;;2.88;2.00;;;24.40;37.00;;;;;;5066601;28;20831;-65
2022/04/27 12:33:36;;;;;;;2.70;1.95;;;24.40;36.90;;;;;;5051093;28;20421;-66
2022/04/27 12:39:10;;;;;;;2.15;1.77;;;24.40;36.70;;;;;;5044586;28;20433;-66
2022/04/27 12:41:42;;;;;;;2.13;1.77;;;24.40;36.60;;;;;;5038843;28;20898;-67
2022/04/27 12:44:12;;;;;;;3.55;1.70;;;24.40;37.10;;;;;;5038993;28;21169;-66
2022/04/27 12:47:00;;;;;;;3.50;1.98;;;24.50;37.60;;;;;;5038330;28;20868;-68
2022/04/27 12:49:29;;;;;;;3.97;1.70;;;24.60;36.70;;;;;;5040095;28;20387;-67
2022/04/27 12:51:57;;;;;;;2.90;1.85;;;24.50;36.40;;;;;;5037486;28;20751;-68
2022/04/27 12:54:35;;;;;;;2.80;1.80;;;24.50;36.10;;;;;;5035237;28;20826;-67
2022/04/27 12:57:03;;;;;;;3.28;1.60;;;24.50;36.10;;;;;;5041434;28;20511;-67
2022/04/27 12:59:29;;;;;;;6.25;1.80;;;24.40;36.30;;;;;;5040227;28;20397;-68
2022/04/27 13:02:04;;;;;;;2.72;1.60;;;24.40;36.30;;;;;;5041177;28;20767;-66
2022/04/27 13:04:31;;;;;;;2.63;1.70;;;24.40;36.40;;;;;;5046745;28;20963;-68
2022/04/27 13:06:58;;;;;;;2.40;1.50;;;24.40;36.40;;;;;;5038380;28;20394;-66
2022/04/27 13:12:08;;;;;;;2.90;1.70;;;24.40;36.40;;;;;;5044345;28;20409;-67